createdAt,value
2022-08-11T17:39:50.143Z,1.30
2022-08-11T17:42:38.309Z,1.20
2022-08-11T17:45:26.090Z,1.42
2022-08-11T17:48:14.588Z,1.40
2022-08-11T17:50:43.670Z,1.33
2022-08-11T17:53:33.898Z,1.35
2022-08-11T17:56:25.277Z,1.60
2022-08-11T17:59:14.934Z,1.60
2022-08-11T18:01:46.572Z,1.50
2022-08-11T18:04:24.630Z,1.60
2022-08-11T18:06:56.562Z,1.50
2022-08-11T18:09:44.120Z,1.48
2022-08-11T18:12:32.464Z,1.42
2022-08-11T18:15:19.567Z,1.60
2022-08-11T18:18:07.139Z,1.73
2022-08-11T18:20:56.506Z,1.60
2022-08-11T18:24:57.442Z,1.70
2022-08-11T18:27:50.077Z,1.40
2022-08-11T18:30:37.443Z,1.77
2022-08-11T18:36:46.959Z,1.58
2022-08-11T18:39:35.604Z,1.42
2022-08-11T18:42:31.312Z,1.80
2022-08-11T18:45:29.395Z,2.25
2022-08-11T18:48:23.445Z,2.60
2022-08-11T18:51:30.725Z,2.10
2022-08-11T18:54:30.852Z,1.98
2022-08-11T18:57:23.104Z,2.00
2022-08-11T19:00:12.335Z,2.00
2022-08-11T19:03:01.015Z,2.13
2022-08-11T19:06:35.867Z,1.92
2022-08-11T19:09:11.956Z,2.03
2022-08-11T19:11:59.962Z,2.13
2022-08-11T19:14:53.493Z,2.28
2022-08-11T19:17:45.992Z,2.08
2022-08-11T19:20:39.763Z,1.98
2022-08-11T19:23:30.569Z,2.22
2022-08-11T19:26:19.251Z,2.00
2022-08-11T19:29:09.505Z,1.85
2022-08-11T19:32:19.169Z,1.70
2022-08-11T19:35:07.900Z,1.92
2022-08-11T19:37:59.039Z,1.77
2022-08-11T19:40:47.690Z,2.00
2022-08-11T19:43:38.046Z,2.20
2022-08-11T19:46:26.273Z,2.53
2022-08-11T19:49:16.139Z,2.95
2022-08-11T19:52:05.369Z,2.70
2022-08-11T19:54:56.005Z,2.40
2022-08-11T19:57:47.687Z,2.80
2022-08-11T20:00:39.542Z,3.10
2022-08-11T20:03:31.253Z,2.20
2022-08-11T20:06:25.362Z,2.83
2022-08-11T20:09:19.923Z,2.25
2022-08-11T20:12:15.582Z,2.60
2022-08-11T20:15:06.261Z,2.53
2022-08-11T20:17:58.235Z,2.50
2022-08-11T20:20:48.951Z,2.65
2022-08-11T20:23:37.001Z,2.83
2022-08-11T20:26:31.332Z,2.65
2022-08-11T20:29:21.031Z,2.50
2022-08-11T20:32:09.868Z,2.50
2022-08-11T20:35:01.430Z,2.88
2022-08-11T20:37:51.461Z,2.60
2022-08-11T20:40:44.061Z,2.88
2022-08-11T20:44:06.057Z,2.45
2022-08-11T20:46:45.566Z,2.95
2022-08-11T20:49:45.941Z,2.28
2022-08-11T20:52:47.201Z,2.90
2022-08-11T20:55:52.292Z,2.42
2022-08-11T20:59:13.710Z,3.25
2022-08-11T21:01:54.213Z,2.50
2022-08-11T21:04:54.270Z,2.55
2022-08-11T21:10:55.527Z,3.17
2022-08-11T21:13:57.936Z,2.90
2022-08-11T21:16:53.913Z,2.70
2022-08-11T21:20:06.702Z,3.20
2022-08-11T21:27:03.622Z,2.72
2022-08-11T21:29:56.525Z,3.30
2022-08-11T21:32:44.845Z,2.70
2022-08-11T21:35:31.634Z,2.85
2022-08-11T21:38:23.542Z,2.55
2022-08-11T21:41:11.633Z,2.47
2022-08-11T21:43:59.819Z,2.67
2022-08-11T21:46:50.734Z,2.90
2022-08-11T21:49:39.432Z,2.95
2022-08-11T21:52:26.232Z,3.65
2022-08-11T21:55:13.976Z,3.35
2022-08-11T21:58:04.674Z,3.30
2022-08-11T22:00:52.186Z,3.25
2022-08-11T22:03:50.047Z,3.75
2022-08-11T22:06:39.191Z,3.70
2022-08-11T22:09:26.589Z,3.67
2022-08-11T22:12:30.562Z,3.75
2022-08-11T22:15:21.898Z,3.75
2022-08-11T22:18:08.876Z,4.00
2022-08-11T22:20:59.157Z,4.18
2022-08-11T22:23:48.387Z,3.88
2022-08-11T22:26:39.619Z,3.92
2022-08-11T22:29:49.967Z,3.78
2022-08-11T22:32:38.466Z,3.53
2022-08-11T22:35:29.089Z,3.95
2022-08-11T22:38:17.878Z,3.95
2022-08-11T22:41:05.154Z,4.10
2022-08-11T22:43:51.978Z,3.78
2022-08-11T22:46:40.317Z,4.30
2022-08-11T22:49:30.117Z,3.92
2022-08-11T22:52:39.246Z,4.07
2022-08-11T22:55:27.671Z,4.20
2022-08-11T22:58:15.261Z,3.78
2022-08-11T23:01:03.963Z,3.80
2022-08-11T23:03:52.279Z,3.50
2022-08-11T23:06:40.534Z,3.60
2022-08-11T23:09:30.476Z,3.70
2022-08-11T23:12:17.530Z,3.70
2022-08-11T23:15:05.061Z,3.67
2022-08-11T23:17:52.072Z,3.63
2022-08-11T23:20:43.039Z,3.80
2022-08-11T23:23:32.659Z,4.07
2022-08-11T23:26:20.742Z,3.55
2022-08-11T23:29:07.497Z,3.85
2022-08-11T23:31:56.352Z,3.92
2022-08-11T23:35:04.043Z,3.90
2022-08-11T23:38:05.023Z,4.35
2022-08-11T23:40:52.075Z,3.80
2022-08-11T23:43:41.003Z,3.90
2022-08-11T23:46:28.849Z,4.85
2022-08-11T23:49:22.341Z,3.67
2022-08-11T23:52:11.796Z,3.53
2022-08-11T23:54:59.395Z,4.00
2022-08-11T23:57:48.760Z,3.95
